sensor_id;sensor_type;location;lat;lon;timestamp;P1;durP1;ratioP1;P2;durP2;ratioP2
22250;SDS011;59348;52.158;5.588;2022-08-19T00:01:44;12.20;;;9.57;;
22250;SDS011;59348;52.158;5.588;2022-08-19T00:04:13;15.02;;;9.65;;
22250;SDS011;59348;52.158;5.588;2022-08-19T00:06:41;11.25;;;9.95;;
22250;SDS011;59348;52.158;5.588;2022-08-19T00:09:10;10.93;;;9.70;;
22250;SDS011;59348;52.158;5.588;2022-08-19T00:11:38;12.70;;;10.00;;
22250;SDS011;59348;52.158;5.588;2022-08-19T00:14:06;10.80;;;9.00;;
22250;SDS011;59348;52.158;5.588;2022-08-19T00:16:34;10.13;;;8.95;;
22250;SDS011;59348;52.158;5.588;2022-08-19T00:19:02;11.70;;;9.93;;
22250;SDS011;59348;52.158;5.588;2022-08-19T00:21:30;12.60;;;9.88;;
22250;SDS011;59348;52.158;5.588;2022-08-19T00:23:58;15.30;;;12.00;;
22250;SDS011;59348;52.158;5.588;2022-08-19T00:26:26;13.48;;;11.57;;
22250;SDS011;59348;52.158;5.588;2022-08-19T00:28:54;13.32;;;11.88;;
22250;SDS011;59348;52.158;5.588;2022-08-19T00:31:21;12.60;;;11.13;;
22250;SDS011;59348;52.158;5.588;2022-08-19T00:33:50;13.23;;;11.85;;
22250;SDS011;59348;52.158;5.588;2022-08-19T00:36:17;15.02;;;11.65;;
22250;SDS011;59348;52.158;5.588;2022-08-19T00:38:46;14.40;;;12.82;;
22250;SDS011;59348;52.158;5.588;2022-08-19T00:41:17;12.85;;;11.55;;
22250;SDS011;59348;52.158;5.588;2022-08-19T00:43:56;13.10;;;11.80;;
22250;SDS011;59348;52.158;5.588;2022-08-19T00:46:23;15.63;;;11.05;;
22250;SDS011;59348;52.158;5.588;2022-08-19T00:48:50;13.13;;;11.25;;
22250;SDS011;59348;52.158;5.588;2022-08-19T00:51:18;11.88;;;10.65;;
22250;SDS011;59348;52.158;5.588;2022-08-19T00:53:46;13.40;;;12.00;;
22250;SDS011;59348;52.158;5.588;2022-08-19T00:56:13;9.68;;;8.45;;
22250;SDS011;59348;52.158;5.588;2022-08-19T00:58:42;8.77;;;7.97;;
22250;SDS011;59348;52.158;5.588;2022-08-19T01:01:09;9.02;;;7.70;;
22250;SDS011;59348;52.158;5.588;2022-08-19T01:03:37;10.20;;;8.80;;
22250;SDS011;59348;52.158;5.588;2022-08-19T01:06:04;9.82;;;8.80;;
22250;SDS011;59348;52.158;5.588;2022-08-19T01:08:32;9.25;;;7.97;;
22250;SDS011;59348;52.158;5.588;2022-08-19T01:11:00;6.25;;;5.65;;
22250;SDS011;59348;52.158;5.588;2022-08-19T01:13:29;7.05;;;6.35;;
22250;SDS011;59348;52.158;5.588;2022-08-19T01:15:58;11.43;;;8.80;;
22250;SDS011;59348;52.158;5.588;2022-08-19T01:18:26;9.88;;;8.88;;
22250;SDS011;59348;52.158;5.588;2022-08-19T01:20:54;10.38;;;9.27;;
22250;SDS011;59348;52.158;5.588;2022-08-19T01:23:24;10.48;;;8.80;;
22250;SDS011;59348;52.158;5.588;2022-08-19T01:26:07;9.82;;;8.82;;
22250;SDS011;59348;52.158;5.588;2022-08-19T01:28:35;10.48;;;9.20;;
22250;SDS011;59348;52.158;5.588;2022-08-19T01:31:03;10.93;;;9.77;;
22250;SDS011;59348;52.158;5.588;2022-08-19T01:33:31;9.20;;;8.30;;
22250;SDS011;59348;52.158;5.588;2022-08-19T01:36:03;9.63;;;8.52;;
22250;SDS011;59348;52.158;5.588;2022-08-19T01:38:34;9.90;;;9.00;;
22250;SDS011;59348;52.158;5.588;2022-08-19T01:41:02;10.82;;;9.00;;
22250;SDS011;59348;52.158;5.588;2022-08-19T01:43:31;10.38;;;8.50;;
22250;SDS011;59348;52.158;5.588;2022-08-19T01:45:58;9.70;;;8.60;;
22250;SDS011;59348;52.158;5.588;2022-08-19T01:48:25;10.02;;;8.68;;
22250;SDS011;59348;52.158;5.588;2022-08-19T01:50:55;11.60;;;9.52;;
22250;SDS011;59348;52.158;5.588;2022-08-19T01:53:22;11.07;;;9.07;;
22250;SDS011;59348;52.158;5.588;2022-08-19T01:55:51;10.68;;;9.68;;
22250;SDS011;59348;52.158;5.588;2022-08-19T01:58:20;9.65;;;8.65;;
22250;SDS011;59348;52.158;5.588;2022-08-19T02:00:47;8.30;;;7.50;;
22250;SDS011;59348;52.158;5.588;2022-08-19T02:03:15;9.70;;;6.32;;
22250;SDS011;59348;52.158;5.588;2022-08-19T02:05:43;7.82;;;7.00;;
22250;SDS011;59348;52.158;5.588;2022-08-19T02:08:11;11.98;;;8.43;;
22250;SDS011;59348;52.158;5.588;2022-08-19T02:10:39;8.35;;;7.55;;
22250;SDS011;59348;52.158;5.588;2022-08-19T02:13:08;11.32;;;8.52;;
22250;SDS011;59348;52.158;5.588;2022-08-19T02:15:36;12.55;;;8.55;;
22250;SDS011;59348;52.158;5.588;2022-08-19T02:18:03;13.23;;;9.90;;
22250;SDS011;59348;52.158;5.588;2022-08-19T02:20:30;9.77;;;8.77;;
22250;SDS011;59348;52.158;5.588;2022-08-19T02:22:58;12.45;;;11.15;;
22250;SDS011;59348;52.158;5.588;2022-08-19T02:25:26;13.00;;;11.43;;
22250;SDS011;59348;52.158;5.588;2022-08-19T02:27:53;14.10;;;12.60;;
22250;SDS011;59348;52.158;5.588;2022-08-19T02:30:22;12.38;;;10.30;;
22250;SDS011;59348;52.158;5.588;2022-08-19T02:32:50;8.57;;;7.70;;
22250;SDS011;59348;52.158;5.588;2022-08-19T02:35:17;11.30;;;8.75;;
22250;SDS011;59348;52.158;5.588;2022-08-19T02:37:44;9.70;;;8.50;;
22250;SDS011;59348;52.158;5.588;2022-08-19T02:40:26;9.63;;;8.63;;
22250;SDS011;59348;52.158;5.588;2022-08-19T02:42:53;10.00;;;8.35;;
22250;SDS011;59348;52.158;5.588;2022-08-19T02:45:20;12.93;;;11.48;;
22250;SDS011;59348;52.158;5.588;2022-08-19T02:47:49;11.25;;;8.95;;
22250;SDS011;59348;52.158;5.588;2022-08-19T02:50:16;8.80;;;7.90;;
22250;SDS011;59348;52.158;5.588;2022-08-19T02:52:44;12.50;;;9.38;;
22250;SDS011;59348;52.158;5.588;2022-08-19T02:55:11;12.68;;;9.18;;
22250;SDS011;59348;52.158;5.588;2022-08-19T02:57:38;10.52;;;8.63;;
22250;SDS011;59348;52.158;5.588;2022-08-19T03:00:07;12.43;;;8.88;;
22250;SDS011;59348;52.158;5.588;2022-08-19T03:02:36;10.73;;;9.60;;
22250;SDS011;59348;52.158;5.588;2022-08-19T03:05:06;11.32;;;9.73;;
22250;SDS011;59348;52.158;5.588;2022-08-19T03:07:34;16.42;;;10.85;;
22250;SDS011;59348;52.158;5.588;2022-08-19T03:10:02;11.88;;;9.05;;
22250;SDS011;59348;52.158;5.588;2022-08-19T03:12:30;11.40;;;8.90;;
22250;SDS011;59348;52.158;5.588;2022-08-19T03:14:57;11.45;;;9.60;;
22250;SDS011;59348;52.158;5.588;2022-08-19T03:17:25;11.75;;;10.15;;
22250;SDS011;59348;52.158;5.588;2022-08-19T03:19:53;11.15;;;9.40;;
22250;SDS011;59348;52.158;5.588;2022-08-19T03:22:22;12.85;;;9.80;;
22250;SDS011;59348;52.158;5.588;2022-08-19T03:24:50;15.30;;;10.15;;
22250;SDS011;59348;52.158;5.588;2022-08-19T03:27:18;14.88;;;10.38;;
22250;SDS011;59348;52.158;5.588;2022-08-19T03:29:45;10.48;;;9.40;;
22250;SDS011;59348;52.158;5.588;2022-08-19T03:32:13;12.13;;;10.18;;
22250;SDS011;59348;52.158;5.588;2022-08-19T03:34:40;11.52;;;9.43;;
22250;SDS011;59348;52.158;5.588;2022-08-19T03:37:09;11.68;;;10.15;;
22250;SDS011;59348;52.158;5.588;2022-08-19T03:39:39;10.90;;;9.32;;
22250;SDS011;59348;52.158;5.588;2022-08-19T03:42:07;11.57;;;9.40;;
22250;SDS011;59348;52.158;5.588;2022-08-19T03:44:35;12.70;;;10.02;;
22250;SDS011;59348;52.158;5.588;2022-08-19T03:47:03;14.55;;;10.55;;
22250;SDS011;59348;52.158;5.588;2022-08-19T03:49:31;10.85;;;9.05;;
22250;SDS011;59348;52.158;5.588;2022-08-19T03:52:00;11.63;;;9.98;;
22250;SDS011;59348;52.158;5.588;2022-08-19T03:54:27;11.07;;;9.93;;
22250;SDS011;59348;52.158;5.588;2022-08-19T03:56:56;11.50;;;10.40;;
22250;SDS011;59348;52.158;5.588;2022-08-19T03:59:25;14.52;;;11.45;;
22250;SDS011;59348;52.158;5.588;2022-08-19T04:01:54;16.25;;;12.52;;
22250;SDS011;59348;52.158;5.588;2022-08-19T04:04:21;13.32;;;11.07;;
22250;SDS011;59348;52.158;5.588;2022-08-19T04:06:48;12.52;;;10.73;;
22250;SDS011;59348;52.158;5.588;2022-08-19T04:09:17;15.07;;;10.35;;
22250;SDS011;59348;52.158;5.588;2022-08-19T04:11:47;11.98;;;10.45;;
22250;SDS011;59348;52.158;5.588;2022-08-19T04:14:17;10.88;;;9.77;;
22250;SDS011;59348;52.158;5.588;2022-08-19T04:16:45;10.93;;;9.80;;
22250;SDS011;59348;52.158;5.588;2022-08-19T04:19:12;14.57;;;10.57;;
22250;SDS011;59348;52.158;5.588;2022-08-19T04:21:42;11.15;;;9.40;;
22250;SDS011;59348;52.158;5.588;2022-08-19T04:24:10;10.45;;;9.30;;
22250;SDS011;59348;52.158;5.588;2022-08-19T04:26:37;11.88;;;9.30;;
22250;SDS011;59348;52.158;5.588;2022-08-19T04:29:06;7.78;;;6.95;;
22250;SDS011;59348;52.158;5.588;2022-08-19T04:31:35;10.05;;;7.93;;
22250;SDS011;59348;52.158;5.588;2022-08-19T04:34:03;8.88;;;8.00;;
22250;SDS011;59348;52.158;5.588;2022-08-19T04:36:31;17.85;;;9.20;;
22250;SDS011;59348;52.158;5.588;2022-08-19T04:39:00;11.05;;;9.00;;
22250;SDS011;59348;52.158;5.588;2022-08-19T04:41:27;10.82;;;8.23;;
22250;SDS011;59348;52.158;5.588;2022-08-19T04:44:08;9.98;;;8.02;;
22250;SDS011;59348;52.158;5.588;2022-08-19T04:46:37;13.45;;;8.73;;
22250;SDS011;59348;52.158;5.588;2022-08-19T04:49:05;12.82;;;8.63;;
22250;SDS011;59348;52.158;5.588;2022-08-19T04:51:33;9.25;;;8.32;;
22250;SDS011;59348;52.158;5.588;2022-08-19T04:54:02;11.18;;;8.50;;
22250;SDS011;59348;52.158;5.588;2022-08-19T04:56:30;9.18;;;8.10;;
22250;SDS011;59348;52.158;5.588;2022-08-19T04:58:57;10.18;;;8.77;;
22250;SDS011;59348;52.158;5.588;2022-08-19T05:01:28;10.57;;;8.77;;
22250;SDS011;59348;52.158;5.588;2022-08-19T05:03:57;9.15;;;7.97;;
22250;SDS011;59348;52.158;5.588;2022-08-19T05:06:25;7.57;;;6.68;;
22250;SDS011;59348;52.158;5.588;2022-08-19T05:08:54;9.55;;;6.53;;
22250;SDS011;59348;52.158;5.588;2022-08-19T05:11:22;8.82;;;7.93;;
22250;SDS011;59348;52.158;5.588;2022-08-19T05:13:51;9.55;;;8.63;;
22250;SDS011;59348;52.158;5.588;2022-08-19T05:16:19;10.95;;;8.15;;
22250;SDS011;59348;52.158;5.588;2022-08-19T05:18:46;11.77;;;8.35;;
22250;SDS011;59348;52.158;5.588;2022-08-19T05:21:29;8.13;;;7.32;;
22250;SDS011;59348;52.158;5.588;2022-08-19T05:24:11;10.10;;;8.40;;
22250;SDS011;59348;52.158;5.588;2022-08-19T05:26:40;9.13;;;8.23;;
22250;SDS011;59348;52.158;5.588;2022-08-19T05:29:08;12.57;;;8.02;;
22250;SDS011;59348;52.158;5.588;2022-08-19T05:31:35;13.32;;;7.55;;
22250;SDS011;59348;52.158;5.588;2022-08-19T05:34:03;10.00;;;8.98;;
22250;SDS011;59348;52.158;5.588;2022-08-19T05:36:34;11.90;;;10.38;;
22250;SDS011;59348;52.158;5.588;2022-08-19T05:39:03;10.82;;;9.73;;
22250;SDS011;59348;52.158;5.588;2022-08-19T05:41:31;13.18;;;10.77;;
22250;SDS011;59348;52.158;5.588;2022-08-19T05:44:00;13.18;;;11.00;;
22250;SDS011;59348;52.158;5.588;2022-08-19T05:46:27;15.18;;;13.38;;
22250;SDS011;59348;52.158;5.588;2022-08-19T05:48:55;15.73;;;14.02;;
22250;SDS011;59348;52.158;5.588;2022-08-19T05:51:22;17.02;;;15.32;;
22250;SDS011;59348;52.158;5.588;2022-08-19T05:53:51;19.92;;;15.55;;
22250;SDS011;59348;52.158;5.588;2022-08-19T05:56:18;20.52;;;16.95;;
22250;SDS011;59348;52.158;5.588;2022-08-19T05:58:46;25.10;;;20.33;;
22250;SDS011;59348;52.158;5.588;2022-08-19T06:01:14;35.13;;;22.52;;
22250;SDS011;59348;52.158;5.588;2022-08-19T06:03:42;33.63;;;25.90;;
22250;SDS011;59348;52.158;5.588;2022-08-19T06:06:10;38.88;;;27.75;;
22250;SDS011;59348;52.158;5.588;2022-08-19T06:08:38;37.80;;;29.20;;
22250;SDS011;59348;52.158;5.588;2022-08-19T06:11:17;43.88;;;32.35;;
22250;SDS011;59348;52.158;5.588;2022-08-19T06:13:46;48.67;;;31.25;;
22250;SDS011;59348;52.158;5.588;2022-08-19T06:16:15;52.45;;;34.88;;
22250;SDS011;59348;52.158;5.588;2022-08-19T06:18:47;51.25;;;34.15;;
22250;SDS011;59348;52.158;5.588;2022-08-19T06:21:14;51.03;;;36.58;;
22250;SDS011;59348;52.158;5.588;2022-08-19T06:23:41;59.72;;;37.58;;
22250;SDS011;59348;52.158;5.588;2022-08-19T06:26:11;58.95;;;39.00;;
22250;SDS011;59348;52.158;5.588;2022-08-19T06:28:39;59.13;;;38.83;;
22250;SDS011;59348;52.158;5.588;2022-08-19T06:31:08;59.50;;;38.67;;
22250;SDS011;59348;52.158;5.588;2022-08-19T06:33:36;60.78;;;38.92;;
22250;SDS011;59348;52.158;5.588;2022-08-19T06:36:04;63.05;;;39.58;;
22250;SDS011;59348;52.158;5.588;2022-08-19T06:38:32;79.00;;;44.30;;
22250;SDS011;59348;52.158;5.588;2022-08-19T06:41:00;77.75;;;44.28;;
22250;SDS011;59348;52.158;5.588;2022-08-19T06:43:27;92.63;;;48.90;;
22250;SDS011;59348;52.158;5.588;2022-08-19T06:45:56;96.50;;;48.83;;
22250;SDS011;59348;52.158;5.588;2022-08-19T06:48:24;85.13;;;49.38;;
22250;SDS011;59348;52.158;5.588;2022-08-19T06:50:51;95.40;;;51.03;;
22250;SDS011;59348;52.158;5.588;2022-08-19T06:53:18;82.75;;;49.83;;
22250;SDS011;59348;52.158;5.588;2022-08-19T06:55:46;91.78;;;52.22;;
22250;SDS011;59348;52.158;5.588;2022-08-19T06:58:13;86.22;;;49.75;;
22250;SDS011;59348;52.158;5.588;2022-08-19T07:00:40;83.97;;;51.17;;
22250;SDS011;59348;52.158;5.588;2022-08-19T07:03:09;84.47;;;52.10;;
22250;SDS011;59348;52.158;5.588;2022-08-19T07:05:38;84.72;;;52.20;;
22250;SDS011;59348;52.158;5.588;2022-08-19T07:08:05;92.63;;;53.88;;
22250;SDS011;59348;52.158;5.588;2022-08-19T07:10:32;86.93;;;53.33;;
22250;SDS011;59348;52.158;5.588;2022-08-19T07:13:01;86.25;;;53.70;;
22250;SDS011;59348;52.158;5.588;2022-08-19T07:15:29;83.35;;;52.08;;
22250;SDS011;59348;52.158;5.588;2022-08-19T07:17:56;84.50;;;52.30;;
22250;SDS011;59348;52.158;5.588;2022-08-19T07:20:25;90.90;;;55.53;;
22250;SDS011;59348;52.158;5.588;2022-08-19T07:22:52;88.95;;;55.33;;
22250;SDS011;59348;52.158;5.588;2022-08-19T07:25:19;91.95;;;55.38;;
22250;SDS011;59348;52.158;5.588;2022-08-19T07:27:48;89.35;;;57.00;;
22250;SDS011;59348;52.158;5.588;2022-08-19T07:30:16;96.13;;;57.83;;
22250;SDS011;59348;52.158;5.588;2022-08-19T07:32:43;99.60;;;58.28;;
22250;SDS011;59348;52.158;5.588;2022-08-19T07:35:11;92.75;;;57.92;;
22250;SDS011;59348;52.158;5.588;2022-08-19T07:37:39;101.30;;;59.88;;
22250;SDS011;59348;52.158;5.588;2022-08-19T07:40:09;92.05;;;59.80;;
22250;SDS011;59348;52.158;5.588;2022-08-19T07:42:36;105.70;;;59.47;;
22250;SDS011;59348;52.158;5.588;2022-08-19T07:45:05;97.70;;;61.70;;
22250;SDS011;59348;52.158;5.588;2022-08-19T07:47:33;102.07;;;61.38;;
22250;SDS011;59348;52.158;5.588;2022-08-19T07:50:00;96.57;;;59.35;;
22250;SDS011;59348;52.158;5.588;2022-08-19T07:52:29;101.97;;;61.78;;
22250;SDS011;59348;52.158;5.588;2022-08-19T07:54:58;99.32;;;59.80;;
22250;SDS011;59348;52.158;5.588;2022-08-19T07:57:28;90.55;;;57.17;;
22250;SDS011;59348;52.158;5.588;2022-08-19T07:59:56;88.72;;;55.35;;
22250;SDS011;59348;52.158;5.588;2022-08-19T08:02:23;90.28;;;55.67;;
22250;SDS011;59348;52.158;5.588;2022-08-19T08:04:50;89.18;;;53.78;;
22250;SDS011;59348;52.158;5.588;2022-08-19T08:07:31;83.18;;;51.03;;
22250;SDS011;59348;52.158;5.588;2022-08-19T08:10:14;89.22;;;50.63;;
22250;SDS011;59348;52.158;5.588;2022-08-19T08:12:41;77.20;;;48.80;;
22250;SDS011;59348;52.158;5.588;2022-08-19T08:15:09;78.53;;;49.83;;
22250;SDS011;59348;52.158;5.588;2022-08-19T08:17:41;70.07;;;48.80;;
22250;SDS011;59348;52.158;5.588;2022-08-19T08:20:08;68.28;;;46.33;;
22250;SDS011;59348;52.158;5.588;2022-08-19T08:22:35;71.25;;;46.58;;
22250;SDS011;59348;52.158;5.588;2022-08-19T08:25:19;64.72;;;43.63;;
22250;SDS011;59348;52.158;5.588;2022-08-19T08:27:48;70.07;;;45.25;;
22250;SDS011;59348;52.158;5.588;2022-08-19T08:30:16;65.13;;;43.00;;
22250;SDS011;59348;52.158;5.588;2022-08-19T08:32:44;59.92;;;40.88;;
22250;SDS011;59348;52.158;5.588;2022-08-19T08:35:12;58.40;;;41.58;;
22250;SDS011;59348;52.158;5.588;2022-08-19T08:37:39;60.40;;;40.50;;
22250;SDS011;59348;52.158;5.588;2022-08-19T08:40:09;59.58;;;39.45;;
22250;SDS011;59348;52.158;5.588;2022-08-19T08:42:46;59.42;;;40.22;;
22250;SDS011;59348;52.158;5.588;2022-08-19T08:45:17;53.28;;;39.35;;
22250;SDS011;59348;52.158;5.588;2022-08-19T08:47:46;55.30;;;39.47;;
22250;SDS011;59348;52.158;5.588;2022-08-19T08:50:16;54.92;;;39.03;;
22250;SDS011;59348;52.158;5.588;2022-08-19T08:52:45;56.05;;;38.83;;
22250;SDS011;59348;52.158;5.588;2022-08-19T08:55:14;55.20;;;39.38;;
22250;SDS011;59348;52.158;5.588;2022-08-19T08:57:43;54.50;;;38.58;;
22250;SDS011;59348;52.158;5.588;2022-08-19T09:00:14;51.22;;;36.80;;
22250;SDS011;59348;52.158;5.588;2022-08-19T09:02:42;47.97;;;35.08;;
22250;SDS011;59348;52.158;5.588;2022-08-19T09:05:10;47.00;;;35.00;;
22250;SDS011;59348;52.158;5.588;2022-08-19T09:07:40;48.50;;;34.38;;
22250;SDS011;59348;52.158;5.588;2022-08-19T09:10:10;50.00;;;34.45;;
22250;SDS011;59348;52.158;5.588;2022-08-19T09:12:46;45.28;;;34.03;;
22250;SDS011;59348;52.158;5.588;2022-08-19T09:15:17;49.63;;;36.38;;
22250;SDS011;59348;52.158;5.588;2022-08-19T09:17:45;43.20;;;32.97;;
22250;SDS011;59348;52.158;5.588;2022-08-19T09:20:14;47.25;;;34.97;;
22250;SDS011;59348;52.158;5.588;2022-08-19T09:22:42;48.38;;;35.50;;
22250;SDS011;59348;52.158;5.588;2022-08-19T09:25:12;51.13;;;36.28;;
22250;SDS011;59348;52.158;5.588;2022-08-19T09:27:40;44.90;;;34.17;;
22250;SDS011;59348;52.158;5.588;2022-08-19T09:30:08;42.00;;;34.63;;
22250;SDS011;59348;52.158;5.588;2022-08-19T09:32:38;45.65;;;32.70;;
22250;SDS011;59348;52.158;5.588;2022-08-19T09:35:07;43.10;;;31.17;;
22250;SDS011;59348;52.158;5.588;2022-08-19T09:37:34;44.13;;;31.30;;
22250;SDS011;59348;52.158;5.588;2022-08-19T09:40:02;40.47;;;29.67;;
22250;SDS011;59348;52.158;5.588;2022-08-19T09:42:29;41.97;;;28.88;;
22250;SDS011;59348;52.158;5.588;2022-08-19T09:44:57;40.63;;;29.85;;
22250;SDS011;59348;52.158;5.588;2022-08-19T09:47:24;43.00;;;32.30;;
22250;SDS011;59348;52.158;5.588;2022-08-19T09:49:52;39.45;;;28.77;;
22250;SDS011;59348;52.158;5.588;2022-08-19T09:52:20;44.55;;;30.33;;
22250;SDS011;59348;52.158;5.588;2022-08-19T09:54:47;39.38;;;28.08;;
22250;SDS011;59348;52.158;5.588;2022-08-19T09:57:18;37.97;;;27.85;;
22250;SDS011;59348;52.158;5.588;2022-08-19T09:59:45;38.33;;;27.20;;
22250;SDS011;59348;52.158;5.588;2022-08-19T10:02:13;37.78;;;27.23;;
22250;SDS011;59348;52.158;5.588;2022-08-19T10:04:40;38.40;;;27.58;;
22250;SDS011;59348;52.158;5.588;2022-08-19T10:07:22;32.10;;;24.75;;
22250;SDS011;59348;52.158;5.588;2022-08-19T10:09:50;33.10;;;24.80;;
22250;SDS011;59348;52.158;5.588;2022-08-19T10:12:17;37.72;;;27.80;;
22250;SDS011;59348;52.158;5.588;2022-08-19T10:14:44;36.42;;;25.25;;
22250;SDS011;59348;52.158;5.588;2022-08-19T10:17:12;33.80;;;25.02;;
22250;SDS011;59348;52.158;5.588;2022-08-19T10:19:39;28.83;;;22.98;;
22250;SDS011;59348;52.158;5.588;2022-08-19T10:22:06;34.63;;;23.58;;
22250;SDS011;59348;52.158;5.588;2022-08-19T10:24:37;34.53;;;23.48;;
22250;SDS011;59348;52.158;5.588;2022-08-19T10:27:04;33.47;;;22.52;;
22250;SDS011;59348;52.158;5.588;2022-08-19T10:29:32;32.50;;;21.83;;
22250;SDS011;59348;52.158;5.588;2022-08-19T10:32:00;30.27;;;22.27;;
22250;SDS011;59348;52.158;5.588;2022-08-19T10:34:28;29.08;;;22.05;;
22250;SDS011;59348;52.158;5.588;2022-08-19T10:36:55;30.13;;;22.17;;
22250;SDS011;59348;52.158;5.588;2022-08-19T10:39:23;26.40;;;20.67;;
22250;SDS011;59348;52.158;5.588;2022-08-19T10:41:51;31.40;;;22.25;;
22250;SDS011;59348;52.158;5.588;2022-08-19T10:44:21;29.98;;;23.10;;
22250;SDS011;59348;52.158;5.588;2022-08-19T10:46:48;31.55;;;23.67;;
22250;SDS011;59348;52.158;5.588;2022-08-19T10:49:16;27.20;;;20.70;;
22250;SDS011;59348;52.158;5.588;2022-08-19T10:51:44;34.42;;;21.73;;
22250;SDS011;59348;52.158;5.588;2022-08-19T10:54:25;30.10;;;21.10;;
22250;SDS011;59348;52.158;5.588;2022-08-19T10:57:14;22.88;;;18.17;;
22250;SDS011;59348;52.158;5.588;2022-08-19T10:59:41;26.00;;;21.10;;
22250;SDS011;59348;52.158;5.588;2022-08-19T11:02:09;26.13;;;19.60;;
22250;SDS011;59348;52.158;5.588;2022-08-19T11:04:37;26.85;;;19.67;;
22250;SDS011;59348;52.158;5.588;2022-08-19T11:07:05;24.10;;;18.30;;
22250;SDS011;59348;52.158;5.588;2022-08-19T11:09:36;29.33;;;19.70;;
22250;SDS011;59348;52.158;5.588;2022-08-19T11:12:04;26.20;;;20.38;;
22250;SDS011;59348;52.158;5.588;2022-08-19T11:14:34;28.23;;;22.02;;
22250;SDS011;59348;52.158;5.588;2022-08-19T11:17:02;28.83;;;22.70;;
22250;SDS011;59348;52.158;5.588;2022-08-19T11:19:29;30.23;;;23.80;;
22250;SDS011;59348;52.158;5.588;2022-08-19T11:21:57;32.33;;;23.63;;
22250;SDS011;59348;52.158;5.588;2022-08-19T11:24:28;27.38;;;22.98;;
22250;SDS011;59348;52.158;5.588;2022-08-19T11:27:00;30.63;;;23.67;;
22250;SDS011;59348;52.158;5.588;2022-08-19T11:29:27;37.45;;;24.60;;
22250;SDS011;59348;52.158;5.588;2022-08-19T11:31:57;29.50;;;24.60;;
22250;SDS011;59348;52.158;5.588;2022-08-19T11:34:26;33.40;;;27.05;;
22250;SDS011;59348;52.158;5.588;2022-08-19T11:36:55;30.70;;;25.70;;
22250;SDS011;59348;52.158;5.588;2022-08-19T11:39:24;35.15;;;29.45;;
22250;SDS011;59348;52.158;5.588;2022-08-19T11:41:51;38.78;;;29.15;;
22250;SDS011;59348;52.158;5.588;2022-08-19T11:44:18;33.20;;;28.27;;
22250;SDS011;59348;52.158;5.588;2022-08-19T11:46:46;33.97;;;26.58;;
22250;SDS011;59348;52.158;5.588;2022-08-19T11:49:15;36.35;;;28.65;;
22250;SDS011;59348;52.158;5.588;2022-08-19T11:51:45;41.50;;;32.35;;
22250;SDS011;59348;52.158;5.588;2022-08-19T11:54:14;42.42;;;31.42;;
22250;SDS011;59348;52.158;5.588;2022-08-19T11:56:42;41.83;;;32.70;;
22250;SDS011;59348;52.158;5.588;2022-08-19T11:59:10;42.00;;;31.95;;
22250;SDS011;59348;52.158;5.588;2022-08-19T12:01:37;38.70;;;31.42;;
22250;SDS011;59348;52.158;5.588;2022-08-19T12:04:05;38.35;;;32.25;;
22250;SDS011;59348;52.158;5.588;2022-08-19T12:06:37;40.00;;;32.40;;
22250;SDS011;59348;52.158;5.588;2022-08-19T12:09:05;41.08;;;32.72;;
22250;SDS011;59348;52.158;5.588;2022-08-19T12:11:33;34.40;;;28.67;;
22250;SDS011;59348;52.158;5.588;2022-08-19T12:14:02;41.42;;;32.35;;
22250;SDS011;59348;52.158;5.588;2022-08-19T12:16:30;43.50;;;34.30;;
22250;SDS011;59348;52.158;5.588;2022-08-19T12:18:57;45.85;;;34.00;;
22250;SDS011;59348;52.158;5.588;2022-08-19T12:21:29;43.67;;;31.67;;
22250;SDS011;59348;52.158;5.588;2022-08-19T12:23:58;41.45;;;33.08;;
22250;SDS011;59348;52.158;5.588;2022-08-19T12:26:26;45.60;;;34.65;;
22250;SDS011;59348;52.158;5.588;2022-08-19T12:28:54;44.97;;;33.53;;
22250;SDS011;59348;52.158;5.588;2022-08-19T12:31:23;41.88;;;33.72;;
22250;SDS011;59348;52.158;5.588;2022-08-19T12:33:51;41.03;;;32.50;;
22250;SDS011;59348;52.158;5.588;2022-08-19T12:36:18;47.67;;;38.28;;
22250;SDS011;59348;52.158;5.588;2022-08-19T12:38:47;46.95;;;38.38;;
22250;SDS011;59348;52.158;5.588;2022-08-19T12:41:16;47.78;;;36.50;;
22250;SDS011;59348;52.158;5.588;2022-08-19T12:43:43;46.00;;;36.83;;
22250;SDS011;59348;52.158;5.588;2022-08-19T12:46:13;47.00;;;37.63;;
22250;SDS011;59348;52.158;5.588;2022-08-19T12:48:40;49.20;;;38.40;;
22250;SDS011;59348;52.158;5.588;2022-08-19T12:51:10;41.30;;;33.65;;
22250;SDS011;59348;52.158;5.588;2022-08-19T12:53:38;42.25;;;33.00;;
22250;SDS011;59348;52.158;5.588;2022-08-19T12:56:05;43.45;;;34.08;;
22250;SDS011;59348;52.158;5.588;2022-08-19T12:58:34;43.08;;;34.42;;
22250;SDS011;59348;52.158;5.588;2022-08-19T13:01:05;48.20;;;34.92;;
22250;SDS011;59348;52.158;5.588;2022-08-19T13:03:33;43.97;;;35.55;;
22250;SDS011;59348;52.158;5.588;2022-08-19T13:06:00;47.15;;;35.78;;
22250;SDS011;59348;52.158;5.588;2022-08-19T13:08:27;44.97;;;36.88;;
22250;SDS011;59348;52.158;5.588;2022-08-19T13:10:54;55.97;;;38.75;;
22250;SDS011;59348;52.158;5.588;2022-08-19T13:13:23;51.33;;;41.25;;
22250;SDS011;59348;52.158;5.588;2022-08-19T13:15:52;56.58;;;43.80;;
22250;SDS011;59348;52.158;5.588;2022-08-19T13:18:27;55.55;;;41.90;;
22250;SDS011;59348;52.158;5.588;2022-08-19T13:20:55;50.45;;;39.70;;
22250;SDS011;59348;52.158;5.588;2022-08-19T13:23:22;47.33;;;36.63;;
22250;SDS011;59348;52.158;5.588;2022-08-19T13:25:55;42.35;;;34.50;;
22250;SDS011;59348;52.158;5.588;2022-08-19T13:28:23;40.92;;;32.13;;
22250;SDS011;59348;52.158;5.588;2022-08-19T13:30:50;28.98;;;25.42;;
22250;SDS011;59348;52.158;5.588;2022-08-19T13:33:32;25.83;;;21.70;;
22250;SDS011;59348;52.158;5.588;2022-08-19T13:36:00;24.13;;;21.55;;
22250;SDS011;59348;52.158;5.588;2022-08-19T13:38:29;23.13;;;20.27;;
22250;SDS011;59348;52.158;5.588;2022-08-19T13:40:56;25.10;;;21.10;;
22250;SDS011;59348;52.158;5.588;2022-08-19T13:43:30;31.83;;;24.05;;
22250;SDS011;59348;52.158;5.588;2022-08-19T13:45:57;33.78;;;24.35;;
22250;SDS011;59348;52.158;5.588;2022-08-19T13:48:25;30.48;;;23.55;;
22250;SDS011;59348;52.158;5.588;2022-08-19T13:50:54;26.45;;;23.63;;
22250;SDS011;59348;52.158;5.588;2022-08-19T13:53:21;27.30;;;23.90;;
22250;SDS011;59348;52.158;5.588;2022-08-19T13:55:49;29.45;;;26.33;;
22250;SDS011;59348;52.158;5.588;2022-08-19T13:58:18;32.47;;;28.83;;
22250;SDS011;59348;52.158;5.588;2022-08-19T14:00:46;33.83;;;27.75;;
22250;SDS011;59348;52.158;5.588;2022-08-19T14:03:15;31.00;;;26.92;;
22250;SDS011;59348;52.158;5.588;2022-08-19T14:05:42;32.92;;;27.33;;
22250;SDS011;59348;52.158;5.588;2022-08-19T14:08:11;35.38;;;28.48;;
22250;SDS011;59348;52.158;5.588;2022-08-19T14:10:39;33.08;;;29.50;;
22250;SDS011;59348;52.158;5.588;2022-08-19T14:13:09;34.63;;;29.98;;
22250;SDS011;59348;52.158;5.588;2022-08-19T14:15:37;38.75;;;34.05;;
22250;SDS011;59348;52.158;5.588;2022-08-19T14:18:04;35.30;;;29.70;;
22250;SDS011;59348;52.158;5.588;2022-08-19T14:20:33;40.28;;;34.95;;
22250;SDS011;59348;52.158;5.588;2022-08-19T14:23:01;38.17;;;34.00;;
22250;SDS011;59348;52.158;5.588;2022-08-19T14:25:31;37.47;;;33.33;;
22250;SDS011;59348;52.158;5.588;2022-08-19T14:27:59;38.97;;;34.17;;
22250;SDS011;59348;52.158;5.588;2022-08-19T14:30:27;45.78;;;34.95;;
22250;SDS011;59348;52.158;5.588;2022-08-19T14:32:54;40.13;;;34.28;;
22250;SDS011;59348;52.158;5.588;2022-08-19T14:35:23;35.60;;;30.02;;